Terminal Aerodrome Forecast
Issued by NWS Paducah, KY

Home | Current Version | Previous Version | Text Only | Print | Product List | Glossary On
Versions: 1 2 3 4 5 6 7 8 9 10 11 12 13 14 15 16 17 18 19
000
FTUS43 KPAH 300500
TAFPAH
TAF
KPAH 300520Z 3006/3106 34006G18KT P6SM OVC026
     FM301430 36007KT P6SM OVC025
     FM301700 01005KT P6SM SCT022
     FM301900 36003KT P6SM SKC=

USA.gov is the U.S. government's official web portal to all federal, state and local government web resources and services.